createdAt,value
2023-03-25T00:03:09.323Z,6.97
2023-03-25T00:08:15.198Z,6.05
2023-03-25T00:13:19.270Z,6.55
2023-03-25T00:18:24.489Z,7.25
2023-03-25T00:23:31.540Z,7.07
2023-03-25T00:28:36.973Z,6.93
2023-03-25T00:33:42.791Z,6.93
2023-03-25T00:43:56.094Z,6.43
2023-03-25T00:49:01.191Z,7.00
2023-03-25T00:54:07.650Z,8.07
2023-03-25T00:59:11.766Z,7.85
2023-03-25T01:04:16.838Z,7.15
2023-03-25T01:09:22.829Z,8.05
2023-03-25T01:19:31.912Z,6.72
2023-03-25T01:24:37.584Z,8.07
2023-03-25T01:29:41.805Z,7.40
2023-03-25T01:34:47.035Z,8.05
2023-03-25T01:39:52.934Z,6.05
2023-03-25T01:50:22.657Z,7.68
2023-03-25T01:55:29.165Z,7.93
2023-03-25T02:00:33.460Z,7.90
2023-03-25T02:05:43.540Z,6.55
2023-03-25T02:10:49.633Z,7.05
2023-03-25T02:16:12.447Z,8.27
2023-03-25T02:21:51.989Z,7.95
2023-03-25T02:27:27.475Z,7.03
2023-03-25T02:32:51.689Z,6.33
2023-03-25T02:38:26.822Z,7.65
2023-03-25T02:43:38.713Z,6.82
2023-03-25T02:48:52.686Z,6.70
2023-03-25T02:54:03.844Z,6.90
2023-03-25T02:59:09.869Z,7.63
2023-03-25T03:04:14.032Z,8.20
2023-03-25T03:09:30.775Z,6.50
2023-03-25T03:14:55.441Z,6.82
2023-03-25T03:20:08.763Z,6.70
2023-03-25T03:25:27.769Z,7.35
2023-03-25T03:30:39.650Z,6.75
2023-03-25T03:35:50.654Z,8.35
2023-03-25T03:41:01.822Z,7.00
2023-03-25T03:46:08.954Z,7.30
2023-03-25T03:51:18.744Z,7.20
2023-03-25T03:56:27.831Z,7.03
2023-03-25T04:01:36.146Z,6.70
2023-03-25T04:06:42.983Z,6.10
2023-03-25T04:11:55.077Z,6.25
2023-03-25T04:16:59.825Z,6.47
2023-03-25T04:22:05.731Z,6.22
2023-03-25T04:32:18.270Z,6.40
2023-03-25T04:37:24.009Z,6.55
2023-03-25T04:42:32.825Z,7.15
2023-03-25T04:47:38.287Z,6.45
2023-03-25T04:52:42.608Z,6.20
2023-03-25T04:57:49.743Z,6.05
2023-03-25T05:02:56.273Z,7.28
2023-03-25T05:08:01.574Z,8.05
2023-03-25T05:13:09.118Z,7.53
2023-03-25T05:18:15.300Z,7.13
2023-03-25T05:23:19.647Z,7.38
2023-03-25T05:28:25.324Z,6.75
2023-03-25T05:33:29.479Z,8.02
2023-03-25T05:38:34.044Z,7.78
2023-03-25T05:43:40.138Z,7.57
2023-03-25T05:53:50.036Z,8.15
2023-03-25T05:58:56.545Z,8.60
2023-03-25T06:04:01.990Z,7.80
2023-03-25T06:09:07.273Z,8.93
2023-03-25T06:14:12.775Z,20.90
2023-03-25T06:19:18.574Z,8.32
2023-03-25T06:24:22.742Z,7.57
2023-03-25T06:29:28.426Z,7.90
2023-03-25T06:34:33.986Z,9.00
2023-03-25T06:39:38.579Z,9.25
2023-03-25T06:44:52.323Z,10.15
2023-03-25T06:50:12.856Z,9.57
2023-03-25T06:55:17.214Z,10.75
2023-03-25T07:00:24.728Z,10.48
2023-03-25T07:05:28.885Z,11.57
2023-03-25T07:10:33.126Z,13.27
2023-03-25T07:15:39.103Z,13.10
2023-03-25T07:25:51.277Z,9.93
2023-03-25T07:30:56.987Z,10.35
2023-03-25T07:36:01.124Z,13.13
2023-03-25T07:41:07.620Z,10.32
2023-03-25T07:46:13.524Z,9.85
2023-03-25T07:56:21.605Z,8.88
2023-03-25T08:01:27.330Z,8.13
2023-03-25T08:06:32.141Z,8.02
2023-03-25T08:11:36.232Z,7.68
2023-03-25T08:16:41.777Z,7.10
2023-03-25T08:21:46.154Z,7.70
2023-03-25T08:26:50.294Z,9.05
2023-03-25T08:31:56.633Z,10.18
2023-03-25T08:37:00.661Z,7.10
2023-03-25T08:42:04.911Z,5.03
2023-03-25T08:47:19.339Z,6.07
2023-03-25T08:52:23.629Z,7.32
2023-03-25T08:57:27.870Z,6.63
2023-03-25T09:02:33.620Z,7.10
2023-03-25T09:07:38.227Z,7.05
2023-03-25T09:12:42.774Z,7.50
2023-03-25T09:17:48.599Z,7.28
2023-03-25T09:27:57.287Z,10.35
2023-03-25T09:33:03.147Z,8.98
2023-03-25T09:43:33.843Z,7.90
2023-03-25T09:48:41.636Z,6.15
2023-03-25T09:53:50.860Z,6.72
2023-03-25T09:58:58.028Z,7.25
2023-03-25T10:04:29.062Z,5.95
2023-03-25T10:09:48.436Z,6.45
2023-03-25T10:15:02.999Z,6.85
2023-03-25T10:20:17.799Z,7.05
2023-03-25T10:25:26.426Z,7.07
2023-03-25T10:30:36.160Z,7.38
2023-03-25T10:35:46.209Z,8.18
2023-03-25T10:40:53.521Z,9.18
2023-03-25T10:46:01.655Z,8.93
2023-03-25T10:51:12.863Z,10.35
2023-03-25T10:56:20.126Z,9.93
2023-03-25T11:01:37.292Z,9.00
2023-03-25T11:06:46.954Z,10.45
2023-03-25T11:11:51.244Z,10.02
2023-03-25T11:16:58.315Z,10.48
2023-03-25T11:22:12.330Z,10.43
2023-03-25T11:27:21.052Z,10.45
2023-03-25T11:32:33.447Z,26.02
2023-03-25T11:37:47.278Z,21.65
2023-03-25T11:42:55.099Z,9.13
2023-03-25T11:48:01.555Z,8.95
2023-03-25T11:53:07.904Z,9.02
2023-03-25T11:58:17.399Z,9.80
2023-03-25T12:03:24.713Z,9.70
2023-03-25T12:08:43.215Z,8.60
2023-03-25T12:14:10.608Z,8.23
2023-03-25T12:19:25.083Z,7.28
2023-03-25T12:24:47.107Z,7.07
2023-03-25T12:29:58.513Z,7.63
2023-03-25T12:35:19.729Z,7.68
2023-03-25T12:40:54.385Z,7.88
2023-03-25T12:46:17.161Z,7.45
2023-03-25T12:51:31.465Z,6.32
2023-03-25T12:56:47.937Z,6.55
2023-03-25T13:02:03.021Z,8.18
2023-03-25T13:07:11.394Z,5.82
2023-03-25T13:12:32.506Z,5.75
2023-03-25T13:17:43.309Z,5.50
2023-03-25T13:22:52.282Z,7.00
2023-03-25T13:28:04.441Z,5.82
2023-03-25T13:33:16.050Z,5.35
2023-03-25T13:38:25.980Z,4.63
2023-03-25T13:43:37.642Z,5.72
2023-03-25T13:48:48.668Z,4.60
2023-03-25T13:53:59.453Z,5.32
2023-03-25T13:59:28.012Z,5.57
2023-03-25T14:04:53.760Z,7.80
2023-03-25T14:10:29.737Z,4.90
2023-03-25T14:20:42.008Z,3.65
2023-03-25T14:25:50.178Z,3.97
2023-03-25T14:31:30.796Z,3.58
2023-03-25T14:37:31.461Z,6.93
2023-03-25T14:42:44.581Z,5.53
2023-03-25T14:47:54.445Z,7.75
2023-03-25T14:53:01.384Z,4.35
2023-03-25T14:58:17.352Z,4.63
2023-03-25T15:03:24.091Z,4.40
2023-03-25T15:08:35.578Z,4.88
2023-03-25T15:13:41.908Z,10.45
2023-03-25T15:19:06.566Z,11.60
2023-03-25T15:24:13.394Z,4.80
2023-03-25T15:29:47.988Z,5.07
2023-03-25T15:35:32.940Z,8.27
2023-03-25T15:41:02.608Z,10.10
2023-03-25T15:46:53.654Z,6.32
2023-03-25T15:52:19.768Z,7.03
2023-03-25T15:57:30.444Z,6.72
2023-03-25T16:02:40.761Z,7.20
2023-03-25T16:07:47.195Z,6.25
2023-03-25T16:12:51.682Z,6.90
2023-03-25T16:17:56.483Z,10.32
2023-03-25T16:23:04.138Z,8.63
2023-03-25T16:28:14.633Z,7.40
2023-03-25T16:33:21.817Z,7.82
2023-03-25T16:38:28.101Z,6.82
2023-03-25T16:43:32.900Z,6.15
2023-03-25T16:48:39.776Z,6.50
2023-03-25T16:53:48.230Z,9.15
2023-03-25T16:59:00.278Z,9.57
2023-03-25T17:04:11.764Z,15.27
2023-03-25T17:09:20.971Z,9.50
2023-03-25T17:14:30.960Z,10.43
2023-03-25T17:19:35.535Z,11.02
2023-03-25T17:24:43.440Z,14.20
2023-03-25T17:29:51.926Z,19.08
2023-03-25T17:35:05.219Z,19.88
2023-03-25T17:40:21.069Z,23.90
2023-03-25T17:45:26.760Z,20.73
2023-03-25T17:50:33.249Z,25.42
2023-03-25T17:55:38.896Z,25.27
2023-03-25T18:00:43.303Z,31.92
2023-03-25T18:05:51.063Z,40.95
2023-03-25T18:10:57.562Z,44.70
2023-03-25T18:16:02.127Z,49.60
2023-03-25T18:21:08.163Z,47.55
2023-03-25T18:26:17.013Z,52.88
2023-03-25T18:31:23.604Z,40.72
2023-03-25T18:36:27.736Z,34.35
2023-03-25T18:41:33.302Z,22.02
2023-03-25T18:46:37.601Z,16.70
2023-03-25T18:51:41.865Z,15.18
2023-03-25T18:56:47.524Z,16.08
2023-03-25T19:01:51.830Z,12.30
2023-03-25T19:06:57.239Z,11.13
2023-03-25T19:12:02.779Z,11.23
2023-03-25T19:17:07.407Z,12.13
2023-03-25T19:22:16.352Z,11.50
2023-03-25T19:27:21.882Z,11.43
2023-03-25T19:32:26.709Z,13.18
2023-03-25T19:37:35.365Z,13.00
2023-03-25T19:42:41.622Z,11.35
2023-03-25T19:47:46.339Z,10.05
2023-03-25T19:52:53.246Z,10.30
2023-03-25T19:57:58.988Z,9.90
2023-03-25T20:03:03.672Z,9.25
2023-03-25T20:08:09.457Z,8.13
2023-03-25T20:13:15.205Z,8.27
2023-03-25T20:18:20.052Z,10.05
2023-03-25T20:23:24.242Z,13.50
2023-03-25T20:28:31.539Z,19.02
2023-03-25T20:33:35.864Z,18.92
2023-03-25T20:38:47.299Z,10.90
2023-03-25T20:44:00.445Z,9.63
2023-03-25T20:49:08.988Z,8.80
2023-03-25T20:54:15.122Z,8.68
2023-03-25T20:59:21.560Z,10.40
2023-03-25T21:04:26.611Z,12.70
2023-03-25T21:09:31.687Z,12.13
2023-03-25T21:14:38.226Z,11.10
2023-03-25T21:19:42.780Z,9.02
2023-03-25T21:24:46.938Z,9.85
2023-03-25T21:29:52.565Z,12.10
2023-03-25T21:34:56.796Z,13.18
2023-03-25T21:40:00.864Z,17.42
2023-03-25T21:45:08.494Z,12.90
2023-03-25T21:50:14.256Z,11.55
2023-03-25T21:55:19.672Z,13.15
2023-03-25T22:00:25.615Z,10.15
2023-03-25T22:10:36.854Z,16.13
2023-03-25T22:15:42.581Z,15.80
2023-03-25T22:20:47.092Z,16.85
2023-03-25T22:25:52.546Z,13.50
2023-03-25T22:30:58.499Z,11.63
2023-03-25T22:36:11.949Z,12.10
2023-03-25T22:41:17.279Z,11.80
2023-03-25T22:46:23.595Z,11.73
2023-03-25T22:51:28.800Z,11.88
2023-03-25T22:56:34.664Z,11.93
2023-03-25T23:06:51.164Z,12.43
2023-03-25T23:12:01.320Z,12.38
2023-03-25T23:17:06.926Z,12.40
2023-03-25T23:22:11.310Z,11.95
2023-03-25T23:27:15.719Z,12.32
2023-03-25T23:32:21.475Z,12.60
2023-03-25T23:37:27.404Z,12.20
2023-03-25T23:47:41.673Z,12.55
2023-03-25T23:57:50.311Z,12.77
